Time;durP1;ratioP1;P1;durP2;ratioP2;P2;SDS_P1;SDS_P2;PMS_P1;PMS_P2;Temp;Humidity;BMP_temperature;BMP_pressure;BME280_temperature;BME280_humidity;BME280_pressure;Samples;Min_cycle;Max_cycle;Signal;HPM_P1;HPM_P2
2022/09/08 00:01:02;;;;;;;7.63;3.00;;;14.80;56.30;;;;;;5051831;28;20214;-69
2022/09/08 00:03:29;;;;;;;5.07;2.50;;;14.80;56.40;;;;;;5051803;28;20575;-69
2022/09/08 00:05:59;;;;;;;5.33;2.93;;;14.80;56.50;;;;;;5052184;28;20271;-68
2022/09/08 00:08:30;;;;;;;5.30;2.70;;;14.80;56.70;;;;;;5054220;28;20221;-69
2022/09/08 00:10:58;;;;;;;4.23;2.80;;;14.70;56.80;;;;;;5052797;28;20267;-69
2022/09/08 00:13:27;;;;;;;4.50;2.47;;;14.70;56.90;;;;;;5053013;28;20230;-68
2022/09/08 00:15:54;;;;;;;6.20;2.67;;;14.60;57.00;;;;;;5047095;28;20293;-68
2022/09/08 00:18:22;;;;;;;9.53;2.80;;;14.60;57.10;;;;;;5052706;28;20206;-68
2022/09/08 00:20:49;;;;;;;5.47;2.90;;;14.60;57.10;;;;;;5052684;28;20213;-68
2022/09/08 00:23:16;;;;;;;6.73;2.73;;;14.60;57.30;;;;;;5051372;28;20225;-68
2022/09/08 00:25:45;;;;;;;7.00;3.33;;;14.50;57.20;;;;;;5052547;28;20221;-68
2022/09/08 00:28:13;;;;;;;6.50;2.97;;;14.50;57.30;;;;;;5052769;28;20217;-68
2022/09/08 00:30:40;;;;;;;3.47;2.13;;;14.50;57.30;;;;;;5053098;28;20225;-69
2022/09/08 00:33:06;;;;;;;3.73;2.20;;;14.50;57.20;;;;;;5053744;28;20662;-68
2022/09/08 00:35:33;;;;;;;4.20;2.13;;;14.50;57.10;;;;;;5053555;28;20205;-69
2022/09/08 00:38:00;;;;;;;5.93;2.60;;;14.50;57.10;;;;;;5050858;28;20237;-69
2022/09/08 00:40:29;;;;;;;7.33;2.50;;;14.50;57.00;;;;;;5053515;28;20217;-69
2022/09/08 00:43:01;;;;;;;2.60;2.33;;;14.50;56.90;;;;;;5053762;28;20226;-69
2022/09/08 00:45:33;;;;;;;4.97;2.33;;;14.60;56.90;;;;;;5049988;28;20213;-69
2022/09/08 00:48:04;;;;;;;6.30;2.47;;;14.60;56.80;;;;;;5053537;28;20206;-69
2022/09/08 00:50:32;;;;;;;3.73;2.13;;;14.60;56.70;;;;;;5053037;28;20562;-68
2022/09/08 00:53:01;;;;;;;6.30;2.33;;;14.60;56.60;;;;;;5051385;28;20209;-69
2022/09/08 00:55:29;;;;;;;4.90;2.50;;;14.60;56.50;;;;;;5053024;28;20639;-68
2022/09/08 00:57:56;;;;;;;5.20;2.40;;;14.60;56.50;;;;;;5053853;28;20202;-69
2022/09/08 01:00:24;;;;;;;3.37;2.43;;;14.70;56.50;;;;;;5054214;28;20213;-69
2022/09/08 01:02:51;;;;;;;2.47;1.90;;;14.70;56.50;;;;;;5051917;28;20241;-69
2022/09/08 01:05:21;;;;;;;2.87;2.30;;;14.60;56.50;;;;;;5052912;28;20210;-68
2022/09/08 01:13:40;;;;;;;3.70;2.47;;;14.60;56.70;;;;;;5052719;28;20201;-69
2022/09/08 01:16:09;;;;;;;3.73;2.03;;;14.60;56.60;;;;;;5051926;28;20232;-68
2022/09/08 01:18:36;;;;;;;3.40;2.20;;;14.60;56.70;;;;;;5050604;28;20210;-69
2022/09/08 01:21:16;;;;;;;5.27;2.10;;;14.60;56.80;;;;;;5054032;28;20218;-70
2022/09/08 01:24:00;;;;;;;3.90;2.87;;;14.60;56.90;;;;;;5053147;28;20239;-70
2022/09/08 01:26:51;;;;;;;2.63;2.23;;;14.60;56.90;;;;;;5051213;28;20206;-70
2022/09/08 01:29:21;;;;;;;5.17;2.57;;;14.60;57.10;;;;;;5050226;28;20213;-69
2022/09/08 01:31:51;;;;;;;5.30;2.20;;;14.60;57.10;;;;;;5053357;28;20237;-69
2022/09/08 01:34:17;;;;;;;6.00;2.53;;;14.60;57.20;;;;;;5051904;28;20254;-70
2022/09/08 01:36:44;;;;;;;4.63;2.50;;;14.60;57.30;;;;;;5052859;28;20240;-70
2022/09/08 01:39:11;;;;;;;4.50;2.50;;;14.50;57.40;;;;;;5053466;28;20206;-69
2022/09/08 01:41:38;;;;;;;6.70;2.57;;;14.40;57.60;;;;;;5052050;28;20215;-70
2022/09/08 01:44:05;;;;;;;7.50;2.43;;;14.40;57.80;;;;;;5052966;28;20705;-69
2022/09/08 01:46:33;;;;;;;3.63;2.63;;;14.30;57.90;;;;;;5052080;28;20225;-69
2022/09/08 01:49:00;;;;;;;4.10;2.47;;;14.20;58.10;;;;;;5049143;28;20206;-69
2022/09/08 01:51:26;;;;;;;5.80;2.47;;;14.10;58.30;;;;;;5051940;28;20202;-69
2022/09/08 01:53:53;;;;;;;4.57;2.40;;;14.00;58.40;;;;;;5051724;28;20229;-70
2022/09/08 01:56:20;;;;;;;6.40;2.70;;;14.00;58.50;;;;;;5051682;28;20237;-70
2022/09/08 01:58:47;;;;;;;3.93;2.53;;;13.90;58.80;;;;;;5051928;28;20233;-69
2022/09/08 02:01:14;;;;;;;3.90;2.57;;;13.90;59.00;;;;;;5051910;28;20296;-69
2022/09/08 02:03:42;;;;;;;3.67;2.23;;;13.90;59.10;;;;;;5049412;28;20227;-69
2022/09/08 02:06:09;;;;;;;2.90;2.23;;;13.90;59.10;;;;;;5052035;28;20237;-70
2022/09/08 02:08:36;;;;;;;9.20;2.80;;;13.80;59.00;;;;;;5051138;28;20659;-68
2022/09/08 02:11:03;;;;;;;4.57;2.63;;;13.80;59.10;;;;;;5052329;28;20209;-69
2022/09/08 02:13:30;;;;;;;8.17;2.47;;;13.80;59.10;;;;;;5051731;28;20209;-69
2022/09/08 02:16:02;;;;;;;4.10;2.37;;;13.80;59.20;;;;;;5051495;28;20213;-69
2022/09/08 02:18:30;;;;;;;4.40;2.57;;;13.80;59.20;;;;;;5051643;28;20571;-69
2022/09/08 02:21:08;;;;;;;3.60;2.60;;;13.80;59.30;;;;;;5051315;28;20205;-69
2022/09/08 02:23:36;;;;;;;5.13;2.40;;;13.70;59.40;;;;;;5049421;28;20229;-69
2022/09/08 02:26:03;;;;;;;7.80;2.57;;;13.70;59.50;;;;;;5050218;28;20208;-70
2022/09/08 02:28:30;;;;;;;4.83;2.50;;;13.70;59.70;;;;;;5051823;28;20216;-70
2022/09/08 02:31:02;;;;;;;3.93;2.87;;;13.60;59.70;;;;;;5051740;28;20210;-70
2022/09/08 02:33:29;;;;;;;4.77;2.00;;;13.60;60.50;;;;;;5051677;28;20213;-69
2022/09/08 02:35:57;;;;;;;4.83;2.33;;;13.60;60.00;;;;;;5049843;28;20217;-69
2022/09/08 02:38:26;;;;;;;3.57;2.60;;;13.60;60.00;;;;;;5049822;28;20711;-70
2022/09/08 02:40:53;;;;;;;3.43;2.40;;;13.60;60.10;;;;;;5052153;28;20205;-70
2022/09/08 02:43:21;;;;;;;3.63;2.27;;;13.60;60.10;;;;;;5051368;28;20228;-69
2022/09/08 02:45:48;;;;;;;6.37;2.67;;;13.60;60.10;;;;;;5050415;28;20232;-70
2022/09/08 02:48:15;;;;;;;4.23;2.53;;;13.60;60.10;;;;;;5050591;28;20654;-70
2022/09/08 02:50:43;;;;;;;5.10;2.60;;;13.60;60.10;;;;;;5048992;28;20213;-69
2022/09/08 02:53:10;;;;;;;3.53;2.40;;;13.60;60.10;;;;;;5051156;28;20212;-70
2022/09/08 02:55:39;;;;;;;5.57;2.80;;;13.60;60.10;;;;;;5048251;28;20939;-69
2022/09/08 02:58:07;;;;;;;7.83;3.43;;;13.60;60.10;;;;;;5051946;28;20249;-69
2022/09/08 03:00:35;;;;;;;5.13;2.63;;;13.60;60.10;;;;;;5052000;28;20217;-69
2022/09/08 03:03:02;;;;;;;4.43;2.60;;;13.50;60.00;;;;;;5052100;28;20228;-70
2022/09/08 03:05:29;;;;;;;4.57;2.50;;;13.50;60.10;;;;;;5050309;28;20206;-69
2022/09/08 03:07:56;;;;;;;4.30;2.80;;;13.50;60.20;;;;;;5049940;28;20574;-69
2022/09/08 03:10:23;;;;;;;4.13;2.53;;;13.50;60.20;;;;;;5049882;28;20641;-69
2022/09/08 03:12:53;;;;;;;4.53;2.40;;;13.50;60.30;;;;;;5049716;28;20237;-69
2022/09/08 03:15:21;;;;;;;5.07;3.00;;;13.50;60.60;;;;;;5049479;28;20202;-70
2022/09/08 03:17:48;;;;;;;3.93;2.60;;;13.50;60.80;;;;;;5050218;28;20202;-69
2022/09/08 03:20:15;;;;;;;5.60;2.57;;;13.50;60.80;;;;;;5049379;28;20214;-69
2022/09/08 03:22:42;;;;;;;6.57;2.60;;;13.50;60.80;;;;;;5051074;28;20617;-69
2022/09/08 03:25:10;;;;;;;4.63;3.63;;;13.40;60.80;;;;;;5049711;28;20229;-70
2022/09/08 03:27:38;;;;;;;5.17;3.07;;;13.40;60.80;;;;;;5052050;28;20206;-70
2022/09/08 03:30:08;;;;;;;7.70;2.40;;;13.40;60.80;;;;;;5050121;28;20301;-70
2022/09/08 03:32:36;;;;;;;4.37;2.33;;;13.30;61.00;;;;;;5054356;28;20221;-70
2022/09/08 03:35:03;;;;;;;3.47;2.30;;;13.30;61.20;;;;;;5052788;28;20198;-70
2022/09/08 03:37:30;;;;;;;4.13;2.87;;;13.30;61.40;;;;;;5054920;28;20240;-70
2022/09/08 03:39:56;;;;;;;3.80;2.67;;;13.20;61.50;;;;;;5054667;28;20206;-70
2022/09/08 03:42:23;;;;;;;3.63;2.30;;;13.20;61.60;;;;;;5054809;28;20223;-71
2022/09/08 03:44:50;;;;;;;4.80;2.60;;;13.20;61.70;;;;;;5054505;28;20229;-69
2022/09/08 03:47:18;;;;;;;5.73;2.90;;;13.20;62.00;;;;;;5054238;28;20205;-70
2022/09/08 03:49:46;;;;;;;3.90;2.87;;;13.10;62.00;;;;;;5053189;28;20635;-70
2022/09/08 03:52:12;;;;;;;4.33;2.73;;;13.10;62.20;;;;;;5055426;28;20210;-69
2022/09/08 03:54:48;;;;;;;3.60;2.20;;;13.10;62.30;;;;;;5054768;28;20209;-69
2022/09/08 03:57:16;;;;;;;4.50;2.60;;;13.00;62.20;;;;;;5056206;28;20212;-70
2022/09/08 03:59:43;;;;;;;4.70;2.63;;;13.00;62.40;;;;;;5055393;28;20210;-70
2022/09/08 04:02:11;;;;;;;3.73;2.40;;;12.90;62.50;;;;;;5055689;28;20206;-69
2022/09/08 04:04:39;;;;;;;2.97;2.03;;;12.90;62.60;;;;;;5051034;28;20639;-69
2022/09/08 04:07:07;;;;;;;5.33;2.83;;;12.90;63.00;;;;;;5054780;28;20310;-70
2022/09/08 04:09:34;;;;;;;5.53;2.43;;;12.80;63.10;;;;;;5054999;28;20214;-70
2022/09/08 04:12:01;;;;;;;4.47;2.27;;;12.80;63.30;;;;;;5054880;28;20685;-70
2022/09/08 04:14:28;;;;;;;5.83;2.70;;;12.80;63.40;;;;;;5053652;28;20213;-71
2022/09/08 04:16:55;;;;;;;3.70;2.30;;;12.80;63.40;;;;;;5052632;28;20240;-70
2022/09/08 04:19:22;;;;;;;5.30;2.93;;;12.80;63.40;;;;;;5052322;28;20634;-70
2022/09/08 04:21:50;;;;;;;5.50;2.83;;;12.80;63.40;;;;;;5053154;28;20237;-70
2022/09/08 04:24:18;;;;;;;5.40;2.40;;;12.80;63.30;;;;;;5054069;28;20236;-70
2022/09/08 04:26:45;;;;;;;6.43;2.77;;;12.80;64.00;;;;;;5053320;28;20218;-70
2022/09/08 04:29:11;;;;;;;3.90;2.13;;;12.80;63.30;;;;;;5053241;28;20257;-70
2022/09/08 04:31:38;;;;;;;5.37;2.30;;;12.80;63.40;;;;;;5053589;28;20574;-69
2022/09/08 04:34:06;;;;;;;3.53;2.40;;;12.80;63.50;;;;;;5044810;28;21028;-70
2022/09/08 04:36:33;;;;;;;3.93;2.13;;;12.70;63.60;;;;;;5045773;28;20602;-70
2022/09/08 04:39:01;;;;;;;4.37;2.23;;;12.80;63.60;;;;;;5052427;28;20213;-69
2022/09/08 04:41:31;;;;;;;4.27;2.40;;;12.70;63.60;;;;;;5052489;28;20213;-69
2022/09/08 04:44:00;;;;;;;5.13;2.60;;;12.80;63.70;;;;;;5053309;28;20337;-69
2022/09/08 04:46:27;;;;;;;5.37;2.53;;;13.00;64.00;;;;;;5051994;28;20585;-69
2022/09/08 04:48:54;;;;;;;2.83;2.47;;;12.70;63.70;;;;;;5048664;28;20213;-69
2022/09/08 04:51:22;;;;;;;4.73;2.33;;;12.70;63.80;;;;;;5053421;28;20596;-69
2022/09/08 04:53:51;;;;;;;4.10;2.43;;;12.80;63.80;;;;;;5051629;28;20425;-69
2022/09/08 04:56:21;;;;;;;5.97;2.13;;;12.80;63.70;;;;;;5040106;28;20237;-69
2022/09/08 04:58:48;;;;;;;7.07;2.70;;;12.80;63.70;;;;;;5053224;28;20221;-69
2022/09/08 05:01:18;;;;;;;4.53;2.60;;;12.90;63.70;;;;;;5051590;28;20210;-71
2022/09/08 05:03:46;;;;;;;5.63;2.10;;;13.00;63.40;;;;;;5051789;28;20218;-67
2022/09/08 05:06:14;;;;;;;2.40;2.10;;;13.10;63.30;;;;;;5048273;28;20293;-67
2022/09/08 05:08:43;;;;;;;4.03;2.10;;;13.20;63.10;;;;;;5051879;28;20209;-68
2022/09/08 05:11:10;;;;;;;3.70;2.30;;;13.20;62.30;;;;;;5050042;28;20205;-68
2022/09/08 05:13:38;;;;;;;4.53;1.87;;;13.30;62.30;;;;;;5049347;28;20726;-69
2022/09/08 05:16:07;;;;;;;4.47;2.07;;;13.40;62.10;;;;;;5047335;28;20214;-68
2022/09/08 05:18:34;;;;;;;3.53;2.20;;;13.50;61.90;;;;;;5050993;28;20217;-67
2022/09/08 05:21:01;;;;;;;5.93;2.10;;;13.60;61.90;;;;;;5044573;28;20202;-70
2022/09/08 05:23:28;;;;;;;4.60;2.20;;;13.70;61.70;;;;;;5047622;28;20751;-70
2022/09/08 05:25:56;;;;;;;3.55;2.40;;;13.80;61.40;;;;;;5049050;28;20765;-67
2022/09/08 05:28:24;;;;;;;4.93;2.63;;;13.90;61.30;;;;;;5045652;28;20464;-68
2022/09/08 05:30:52;;;;;;;5.07;2.40;;;13.90;61.10;;;;;;5042928;28;20284;-69
2022/09/08 05:33:19;;;;;;;6.90;2.60;;;14.00;60.80;;;;;;5048760;28;20206;-69
2022/09/08 05:35:46;;;;;;;10.60;3.00;;;14.10;60.80;;;;;;5046041;28;20205;-69
2022/09/08 05:38:12;;;;;;;8.07;2.80;;;14.20;60.70;;;;;;5047377;28;20240;-70
2022/09/08 05:40:39;;;;;;;10.93;4.60;;;14.20;60.70;;;;;;5047928;28;20312;-69
2022/09/08 05:43:06;;;;;;;7.90;3.10;;;14.30;60.80;;;;;;5050149;28;20864;-69
2022/09/08 05:45:33;;;;;;;10.93;2.93;;;14.40;60.40;;;;;;5048631;28;20234;-68
2022/09/08 05:48:02;;;;;;;5.38;2.63;;;14.50;59.80;;;;;;5046666;28;20460;-69
2022/09/08 05:50:33;;;;;;;7.03;3.30;;;14.60;59.80;;;;;;5042543;28;20217;-68
2022/09/08 05:53:01;;;;;;;8.33;2.73;;;14.70;59.80;;;;;;5048882;28;20212;-68
2022/09/08 05:55:28;;;;;;;5.70;2.70;;;14.80;59.50;;;;;;5045193;28;20578;-69
2022/09/08 05:57:54;;;;;;;8.80;2.83;;;14.90;59.10;;;;;;5045555;28;20269;-69
2022/09/08 06:00:21;;;;;;;6.70;2.27;;;15.00;59.70;;;;;;5046229;28;20229;-67
2022/09/08 06:02:49;;;;;;;7.40;3.00;;;15.00;59.20;;;;;;5045268;28;20237;-68
2022/09/08 06:05:18;;;;;;;6.53;2.80;;;15.00;59.70;;;;;;5041864;28;20708;-68
2022/09/08 06:07:45;;;;;;;5.50;3.13;;;15.10;59.30;;;;;;5048911;28;20209;-68
2022/09/08 06:10:11;;;;;;;5.60;2.47;;;15.10;59.20;;;;;;5048358;28;20206;-71
2022/09/08 06:12:38;;;;;;;5.93;2.73;;;15.30;59.20;;;;;;5049221;28;20213;-68
2022/09/08 06:15:06;;;;;;;5.03;2.50;;;15.30;59.10;;;;;;5050682;28;20217;-68
2022/09/08 06:17:33;;;;;;;6.87;2.63;;;15.40;59.10;;;;;;5049964;28;20236;-69
2022/09/08 06:20:00;;;;;;;4.43;2.50;;;15.40;58.90;;;;;;5052009;28;20221;-70
2022/09/08 06:22:31;;;;;;;6.17;2.80;;;15.60;58.80;;;;;;5045642;28;20221;-70
2022/09/08 06:24:57;;;;;;;7.97;3.17;;;15.60;58.80;;;;;;5047830;28;20218;-70
2022/09/08 06:27:32;;;;;;;8.18;2.88;;;15.70;58.60;;;;;;5043844;28;20644;-70
2022/09/08 06:30:04;;;;;;;4.83;2.27;;;15.70;58.70;;;;;;5046538;28;20279;-69
2022/09/08 06:32:36;;;;;;;6.17;2.60;;;15.70;58.90;;;;;;5049777;28;20209;-70
2022/09/08 06:35:08;;;;;;;3.43;1.77;;;15.80;58.60;;;;;;5048538;28;20698;-70
2022/09/08 06:37:42;;;;;;;7.95;2.60;;;15.90;58.60;;;;;;5047678;28;20229;-70
2022/09/08 06:40:14;;;;;;;4.55;2.65;;;15.90;58.50;;;;;;5051796;28;20205;-70
2022/09/08 06:42:49;;;;;;;3.08;2.10;;;16.10;58.60;;;;;;5048213;28;20229;-73
2022/09/08 06:45:23;;;;;;;5.45;2.50;;;16.10;58.20;;;;;;5048265;28;20711;-70
2022/09/08 06:47:57;;;;;;;6.68;2.47;;;16.30;58.30;;;;;;5047085;28;20307;-72
2022/09/08 06:50:25;;;;;;;6.82;2.20;;;16.40;58.10;;;;;;5046118;28;20198;-73
2022/09/08 06:52:55;;;;;;;5.75;2.38;;;16.40;57.90;;;;;;5049198;28;20585;-73
2022/09/08 06:55:30;;;;;;;4.05;2.03;;;16.60;58.10;;;;;;5050155;28;20197;-73
2022/09/08 06:58:07;;;;;;;5.82;2.45;;;16.70;57.90;;;;;;5049115;28;20213;-74
2022/09/08 07:00:43;;;;;;;4.05;2.13;;;16.80;57.80;;;;;;5047602;28;20216;-72
2022/09/08 07:03:19;;;;;;;11.07;2.38;;;17.10;57.50;;;;;;5048979;28;20207;-71
2022/09/08 07:05:58;;;;;;;3.75;2.28;;;17.20;57.00;;;;;;5053324;28;20213;-71
2022/09/08 07:08:41;;;;;;;6.95;2.65;;;17.30;56.80;;;;;;5055081;28;20316;-71
2022/09/08 07:11:18;;;;;;;6.30;2.38;;;17.50;57.00;;;;;;5054445;28;20205;-73
2022/09/08 07:13:54;;;;;;;7.10;2.50;;;17.70;56.80;;;;;;5053828;28;20206;-71
2022/09/08 07:16:26;;;;;;;5.20;2.33;;;17.90;56.50;;;;;;5053283;28;20562;-73
2022/09/08 07:18:59;;;;;;;3.38;1.90;;;18.00;55.70;;;;;;5044273;28;20237;-71
2022/09/08 07:21:34;;;;;;;7.50;2.75;;;18.10;55.30;;;;;;5048116;28;20221;-71
2022/09/08 07:24:04;;;;;;;6.28;2.60;;;18.20;54.90;;;;;;5046727;28;20205;-68
2022/09/08 07:26:34;;;;;;;6.47;3.00;;;18.40;55.30;;;;;;5049647;28;20688;-70
2022/09/08 07:29:06;;;;;;;12.40;5.18;;;18.50;54.70;;;;;;5053383;28;20385;-70
2022/09/08 07:31:39;;;;;;;17.20;7.05;;;18.60;54.60;;;;;;5051898;28;20650;-69
2022/09/08 07:34:15;;;;;;;23.13;8.27;;;18.70;54.30;;;;;;5052445;28;20563;-73
2022/09/08 07:36:46;;;;;;;4.80;2.53;;;18.70;54.20;;;;;;5054438;28;20237;-75
2022/09/08 07:39:21;;;;;;;8.70;4.20;;;18.80;53.80;;;;;;5054804;28;20198;-73
2022/09/08 07:41:50;;;;;;;10.38;2.88;;;18.90;53.80;;;;;;5044195;28;20205;-73
2022/09/08 07:44:19;;;;;;;5.07;2.58;;;19.00;53.80;;;;;;5051056;28;20663;-74
2022/09/08 07:47:14;;;;;;;4.78;2.28;;;19.20;52.90;;;;;;5053681;28;20235;-74
2022/09/08 07:49:47;;;;;;;4.07;2.15;;;19.20;52.20;;;;;;5044975;28;20693;-72
2022/09/08 07:52:27;;;;;;;3.15;2.03;;;19.30;52.10;;;;;;5054446;28;20544;-74
2022/09/08 07:55:09;;;;;;;4.05;2.50;;;19.40;51.40;;;;;;5052682;28;20202;-71
2022/09/08 07:57:45;;;;;;;6.80;2.10;;;19.40;51.20;;;;;;5051984;28;20209;-72
2022/09/08 08:00:15;;;;;;;6.22;2.28;;;19.50;51.40;;;;;;5053445;28;20331;-73
2022/09/08 08:03:08;;;;;;;2.47;2.10;;;19.50;51.20;;;;;;5050541;28;20202;-73
2022/09/08 08:05:41;;;;;;;6.32;2.05;;;19.60;51.10;;;;;;5050116;28;20225;-72
2022/09/08 08:08:16;;;;;;;6.78;1.95;;;19.80;50.60;;;;;;5043384;28;20194;-73
2022/09/08 08:10:54;;;;;;;2.67;2.05;;;19.90;50.40;;;;;;5054243;28;20216;-72
2022/09/08 08:13:37;;;;;;;4.63;2.20;;;19.90;50.30;;;;;;5044673;28;20204;-72
2022/09/08 08:16:09;;;;;;;5.90;2.30;;;20.00;50.30;;;;;;5051964;28;20201;-74
2022/09/08 08:18:47;;;;;;;5.32;2.00;;;20.10;50.40;;;;;;5050574;28;20205;-73
2022/09/08 08:21:17;;;;;;;6.45;1.75;;;20.30;50.10;;;;;;5052925;28;20210;-73
2022/09/08 08:24:02;;;;;;;4.28;1.60;;;20.40;49.30;;;;;;5052203;28;20228;-74
2022/09/08 08:26:38;;;;;;;4.57;1.80;;;20.40;48.80;;;;;;5050917;28;20206;-72
2022/09/08 08:29:35;;;;;;;4.07;1.90;;;20.50;49.30;;;;;;5052422;28;20202;-74
2022/09/08 08:32:09;;;;;;;3.40;1.95;;;20.60;49.10;;;;;;5051250;28;20214;-75
2022/09/08 08:34:43;;;;;;;4.60;1.83;;;20.70;49.20;;;;;;5054041;28;20225;-74
2022/09/08 08:37:17;;;;;;;2.97;1.77;;;20.80;49.00;;;;;;5052431;28;20271;-72
2022/09/08 08:39:45;;;;;;;4.28;2.00;;;20.90;48.40;;;;;;5052541;28;20670;-72
2022/09/08 08:42:31;;;;;;;3.78;2.00;;;20.90;48.40;;;;;;5053533;28;20519;-71
2022/09/08 08:45:11;;;;;;;4.28;1.85;;;20.90;48.40;;;;;;5049979;28;20226;-75
2022/09/08 08:48:02;;;;;;;4.18;2.10;;;21.00;48.50;;;;;;5051729;28;20213;-71
2022/09/08 08:51:10;;;;;;;3.70;1.67;;;21.20;48.70;;;;;;5054619;28;20221;-73
2022/09/08 08:54:00;;;;;;;6.93;1.70;;;21.30;48.50;;;;;;5041934;28;20209;-71
2022/09/08 08:56:34;;;;;;;7.40;2.58;;;21.50;48.40;;;;;;5048578;28;20202;-75
2022/09/08 08:59:38;;;;;;;5.65;1.50;;;21.70;48.20;;;;;;5052963;28;20212;-76
2022/09/08 09:02:18;;;;;;;2.92;2.08;;;21.80;47.80;;;;;;5053760;28;20220;-75
2022/09/08 09:05:25;;;;;;;3.20;1.75;;;22.00;47.60;;;;;;5049409;28;20201;-73
2022/09/08 09:08:36;;;;;;;2.42;1.63;;;22.00;47.10;;;;;;5015187;28;20578;-74
2022/09/08 09:11:28;;;;;;;2.58;1.50;;;22.20;47.40;;;;;;5048273;28;20260;-74
2022/09/08 09:14:34;;;;;;;2.75;1.77;;;22.80;47.60;;;;;;5051764;28;20296;-73
2022/09/08 09:17:20;;;;;;;4.57;1.65;;;24.30;45.80;;;;;;5052754;28;20205;-71
2022/09/08 09:20:02;;;;;;;2.65;1.70;;;26.00;43.40;;;;;;5052379;28;20562;-72
2022/09/08 09:22:39;;;;;;;5.22;1.90;;;27.00;42.30;;;;;;5049565;28;20226;-72
2022/09/08 09:25:19;;;;;;;2.13;1.83;;;27.90;40.90;;;;;;5046594;28;20226;-73
2022/09/08 09:27:47;;;;;;;2.55;1.48;;;28.30;40.00;;;;;;5052235;28;20262;-75
2022/09/08 09:30:22;;;;;;;2.70;1.75;;;28.30;39.60;;;;;;5051106;28;20898;-73
2022/09/08 09:33:24;;;;;;;6.15;1.98;;;28.20;39.50;;;;;;5052228;28;20201;-74
2022/09/08 09:36:19;;;;;;;4.28;1.73;;;28.10;39.20;;;;;;5046724;28;20206;-74
2022/09/08 09:39:18;;;;;;;2.08;1.60;;;27.60;39.40;;;;;;5049501;28;20210;-73
2022/09/08 09:42:15;;;;;;;7.43;1.80;;;27.60;40.90;;;;;;5050524;28;20217;-74
2022/09/08 09:45:02;;;;;;;5.30;2.80;;;27.70;40.30;;;;;;5049377;28;20202;-74
2022/09/08 09:48:04;;;;;;;2.63;1.70;;;27.70;40.00;;;;;;5052943;28;20198;-75
2022/09/08 09:51:00;;;;;;;2.33;1.77;;;27.60;39.70;;;;;;5039967;28;20278;-74
2022/09/08 09:53:45;;;;;;;4.13;1.70;;;27.60;39.50;;;;;;5049150;28;20554;-74
2022/09/08 09:56:39;;;;;;;2.67;1.60;;;27.20;39.20;;;;;;5046504;28;20198;-73
2022/09/08 09:59:41;;;;;;;6.38;2.00;;;26.90;39.70;;;;;;5045855;28;20230;-74
2022/09/08 10:02:24;;;;;;;4.60;1.80;;;26.80;40.50;;;;;;5046318;28;20260;-73
2022/09/08 10:05:15;;;;;;;5.68;2.22;;;26.70;40.00;;;;;;5043599;28;20198;-72
2022/09/08 10:08:18;;;;;;;2.83;1.50;;;26.60;40.10;;;;;;5048769;28;20221;-73
2022/09/08 10:11:01;;;;;;;3.17;1.75;;;26.50;39.60;;;;;;5053529;28;20216;-71
2022/09/08 10:13:53;;;;;;;5.05;1.80;;;26.40;40.00;;;;;;5042718;28;20264;-73
2022/09/08 10:17:02;;;;;;;3.35;1.77;;;26.40;40.00;;;;;;5040505;28;21995;-72
2022/09/08 10:20:07;;;;;;;9.00;1.80;;;26.30;40.30;;;;;;5043362;28;20251;-73
2022/09/08 10:23:16;;;;;;;3.10;1.60;;;26.20;40.00;;;;;;5024938;28;20271;-72
2022/09/08 10:26:14;;;;;;;3.83;1.58;;;25.90;39.80;;;;;;5032266;28;20322;-74
2022/09/08 10:29:30;;;;;;;12.95;2.13;;;25.90;39.90;;;;;;5033785;28;20702;-74
2022/09/08 10:32:42;;;;;;;3.65;2.10;;;25.90;40.20;;;;;;5003655;28;20222;-74
2022/09/08 10:35:43;;;;;;;5.18;1.60;;;25.80;40.70;;;;;;5004697;28;20235;-72
2022/09/08 10:38:32;;;;;;;3.53;1.63;;;26.20;40.30;;;;;;4999061;28;20235;-72
2022/09/08 10:41:18;;;;;;;3.20;2.20;;;26.30;40.30;;;;;;5006112;28;20219;-71
2022/09/08 10:44:14;;;;;;;2.85;1.85;;;26.50;40.50;;;;;;5037987;28;20713;-72
2022/09/08 10:47:09;;;;;;;4.40;1.95;;;26.60;40.00;;;;;;5033339;28;20304;-71
2022/09/08 10:50:17;;;;;;;3.58;1.90;;;26.60;40.40;;;;;;5051892;28;20205;-72
2022/09/08 10:52:51;;;;;;;5.88;2.10;;;26.90;40.20;;;;;;5048700;28;20224;-72
2022/09/08 10:55:46;;;;;;;5.07;2.22;;;27.00;40.50;;;;;;5045397;28;20212;-74
2022/09/08 10:58:40;;;;;;;3.85;2.00;;;27.10;39.90;;;;;;5040935;28;20211;-73
2022/09/08 11:01:25;;;;;;;2.05;1.48;;;27.20;39.60;;;;;;5041351;28;20201;-72
2022/09/08 11:04:19;;;;;;;3.38;2.00;;;27.20;39.20;;;;;;5049753;28;20734;-72
2022/09/08 11:07:02;;;;;;;3.88;1.58;;;27.20;39.70;;;;;;5049289;28;20222;-73
2022/09/08 11:09:45;;;;;;;2.45;1.42;;;27.20;39.80;;;;;;5040434;28;20221;-74
2022/09/08 11:12:39;;;;;;;6.10;3.90;;;27.10;39.20;;;;;;5044150;28;20197;-74
2022/09/08 11:15:57;;;;;;;12.70;5.75;;;27.00;39.50;;;;;;5043747;28;20198;-73
2022/09/08 11:18:37;;;;;;;7.30;3.00;;;27.10;39.50;;;;;;4984455;28;20215;-74
2022/09/08 11:21:09;;;;;;;27.38;11.93;;;27.10;38.50;;;;;;5042949;28;20596;-72
2022/09/08 11:23:46;;;;;;;11.75;4.90;;;27.20;39.00;;;;;;5048366;28;20687;-74
2022/09/08 11:26:34;;;;;;;3.78;2.08;;;27.10;39.00;;;;;;5043976;28;20229;-73
2022/09/08 11:29:05;;;;;;;5.47;2.13;;;27.10;39.20;;;;;;5049137;28;20201;-73
2022/09/08 11:31:47;;;;;;;9.00;2.50;;;27.00;39.20;;;;;;5044750;28;20210;-73
2022/09/08 11:34:44;;;;;;;5.55;2.38;;;27.10;39.70;;;;;;5047957;28;20232;-70
2022/09/08 11:37:35;;;;;;;8.05;2.10;;;27.40;39.40;;;;;;5044679;28;20230;-72
2022/09/08 11:40:41;;;;;;;2.72;1.33;;;27.50;38.40;;;;;;5047016;28;20202;-71
2022/09/08 11:43:24;;;;;;;2.97;1.17;;;27.60;37.70;;;;;;5029009;28;20210;-70
2022/09/08 11:46:03;;;;;;;4.05;1.40;;;27.20;37.80;;;;;;5047840;28;20716;-71
2022/09/08 11:49:15;;;;;;;3.08;1.25;;;27.20;38.10;;;;;;5048786;28;20209;-70
2022/09/08 11:52:08;;;;;;;2.75;1.20;;;27.10;38.50;;;;;;5045181;28;20697;-71
2022/09/08 11:54:56;;;;;;;3.45;1.60;;;27.20;38.60;;;;;;5050316;28;20209;-69
2022/09/08 11:57:41;;;;;;;2.30;1.52;;;27.30;38.60;;;;;;5053323;28;20731;-71
2022/09/08 12:00:34;;;;;;;1.67;1.20;;;27.30;38.60;;;;;;5051283;28;20202;-71
2022/09/08 12:03:50;;;;;;;2.28;1.50;;;27.50;38.10;;;;;;5051191;28;20655;-70
2022/09/08 12:06:45;;;;;;;6.28;1.63;;;27.40;37.80;;;;;;5014658;28;20229;-71
2022/09/08 12:09:46;;;;;;;5.15;1.50;;;27.20;37.50;;;;;;5005124;28;20215;-69
2022/09/08 12:12:33;;;;;;;2.50;1.17;;;27.00;37.50;;;;;;5036584;28;20204;-72
2022/09/08 12:15:16;;;;;;;1.92;1.23;;;26.90;37.50;;;;;;5046468;28;20255;-71
2022/09/08 12:17:56;;;;;;;3.88;1.50;;;26.70;38.20;;;;;;5049849;28;20240;-70
2022/09/08 12:20:36;;;;;;;2.00;1.50;;;26.60;37.80;;;;;;5053251;28;20209;-70
2022/09/08 12:23:37;;;;;;;1.58;1.30;;;26.60;37.60;;;;;;5050381;28;20316;-71
2022/09/08 12:26:24;;;;;;;1.15;0.80;;;26.40;37.90;;;;;;5046403;28;20287;-70
2022/09/08 12:29:00;;;;;;;6.13;1.30;;;26.30;38.30;;;;;;5052317;28;20692;-70
2022/09/08 12:31:50;;;;;;;1.75;1.27;;;26.40;38.00;;;;;;5051809;28;20206;-70
2022/09/08 12:34:37;;;;;;;1.80;1.30;;;26.40;37.90;;;;;;5051916;28;20210;-70
2022/09/08 12:37:13;;;;;;;4.50;1.10;;;26.20;38.60;;;;;;5051040;28;20654;-68
2022/09/08 12:40:07;;;;;;;5.13;1.90;;;26.00;38.00;;;;;;5046846;28;20532;-70
2022/09/08 12:42:51;;;;;;;1.50;1.20;;;25.90;38.70;;;;;;5043374;28;20251;-70
2022/09/08 12:45:30;;;;;;;3.20;0.95;;;25.90;38.80;;;;;;5049760;28;20201;-70
2022/09/08 12:48:06;;;;;;;2.15;1.20;;;26.00;39.20;;;;;;5045719;28;20217;-69
2022/09/08 12:50:46;;;;;;;5.25;1.05;;;26.00;39.10;;;;;;5049938;28;20217;-69
2022/09/08 12:53:47;;;;;;;8.52;1.58;;;26.10;38.90;;;;;;5046454;28;20293;-70
2022/09/08 12:56:21;;;;;;;1.83;1.05;;;26.30;38.70;;;;;;5038012;28;20631;-70
2022/09/08 12:59:00;;;;;;;2.55;1.13;;;26.40;38.10;;;;;;5043358;28;20262;-69
2022/09/08 13:01:34;;;;;;;3.95;1.35;;;26.40;38.10;;;;;;5050897;28;20674;-69
2022/09/08 13:04:22;;;;;;;2.47;1.10;;;26.40;37.90;;;;;;5049433;28;20570;-69
2022/09/08 13:07:00;;;;;;;8.00;1.48;;;26.40;37.60;;;;;;5039487;28;20226;-69
2022/09/08 13:09:32;;;;;;;4.45;1.17;;;26.60;37.80;;;;;;5050182;28;20200;-69
2022/09/08 13:12:22;;;;;;;2.00;1.17;;;26.70;36.60;;;;;;5048726;28;20412;-69
2022/09/08 13:15:09;;;;;;;4.43;1.02;;;26.70;36.90;;;;;;5050952;28;20214;-68
2022/09/08 13:17:46;;;;;;;3.20;1.20;;;26.60;37.30;;;;;;5048280;28;20193;-69
2022/09/08 13:20:30;;;;;;;1.85;1.00;;;26.30;37.30;;;;;;5048048;28;20206;-70
2022/09/08 13:23:17;;;;;;;5.47;1.60;;;26.10;38.50;;;;;;5050478;28;20229;-71
2022/09/08 13:25:54;;;;;;;2.83;1.10;;;26.00;38.40;;;;;;5045494;28;20224;-71
2022/09/08 13:28:51;;;;;;;3.83;1.30;;;26.00;38.20;;;;;;5051106;28;20535;-72
2022/09/08 13:31:28;;;;;;;8.77;1.52;;;26.00;38.00;;;;;;5044604;28;20271;-71
2022/09/08 13:34:10;;;;;;;4.70;1.50;;;26.00;37.70;;;;;;5049058;28;20654;-71
2022/09/08 13:36:49;;;;;;;2.13;1.15;;;26.10;37.70;;;;;;5046823;28;20234;-71
2022/09/08 13:39:45;;;;;;;2.13;1.50;;;26.20;37.30;;;;;;5045803;28;20202;-71